createdAt,value
2019-02-06T00:00:56.618Z,3.36
2019-02-06T00:03:23.349Z,3.36
2019-02-06T00:05:50.219Z,3.36
2019-02-06T00:08:17.067Z,3.32
2019-02-06T00:10:43.784Z,3.34
2019-02-06T00:13:10.507Z,3.38
2019-02-06T00:15:37.366Z,3.40
2019-02-06T00:18:04.539Z,3.43
2019-02-06T00:20:32.107Z,3.27
2019-02-06T00:22:59.267Z,3.25
2019-02-06T00:25:26.101Z,3.38
2019-02-06T00:27:52.830Z,3.33
2019-02-06T00:32:54.264Z,3.39
2019-02-06T00:35:25.750Z,3.52
2019-02-06T00:37:50.041Z,3.44
2019-02-06T00:40:16.710Z,3.41
2019-02-06T00:42:43.465Z,3.33
2019-02-06T00:45:10.286Z,3.29
2019-02-06T00:47:37.128Z,3.29
2019-02-06T00:50:04.889Z,3.38
2019-02-06T00:52:32.308Z,3.28
2019-02-06T00:54:59.176Z,3.27
2019-02-06T00:57:25.903Z,3.30
2019-02-06T00:59:52.749Z,3.27
2019-02-06T01:02:19.458Z,3.31
2019-02-06T01:04:46.467Z,3.30
2019-02-06T01:07:13.666Z,3.26
2019-02-06T01:09:40.446Z,3.26
2019-02-06T01:12:09.167Z,3.32
2019-02-06T01:14:36.184Z,3.39
2019-02-06T01:17:03.066Z,3.31
2019-02-06T01:19:42.895Z,3.25
2019-02-06T01:22:09.733Z,3.45
2019-02-06T01:24:36.561Z,3.27
2019-02-06T01:27:03.572Z,3.27
2019-02-06T01:29:30.715Z,3.20
2019-02-06T01:31:57.438Z,3.27
2019-02-06T01:34:24.560Z,3.27
2019-02-06T01:36:51.409Z,3.20
2019-02-06T01:39:18.402Z,3.12
2019-02-06T01:41:45.115Z,3.13
2019-02-06T01:44:12.018Z,3.13
2019-02-06T01:46:39.118Z,3.16
2019-02-06T01:49:06.418Z,3.12
2019-02-06T01:51:33.107Z,3.13
2019-02-06T01:54:00.201Z,3.24
2019-02-06T01:56:27.186Z,3.32
2019-02-06T01:58:54.028Z,3.25
2019-02-06T02:01:20.871Z,3.19
2019-02-06T02:03:47.739Z,3.20
2019-02-06T02:06:14.527Z,3.16
2019-02-06T02:11:33.969Z,3.24
2019-02-06T02:14:00.797Z,3.22
2019-02-06T02:16:27.711Z,3.17
2019-02-06T02:18:54.790Z,3.10
2019-02-06T02:21:21.872Z,3.13
2019-02-06T02:23:48.591Z,3.16
2019-02-06T02:26:15.295Z,3.12
2019-02-06T02:28:42.005Z,3.13
2019-02-06T02:33:56.892Z,3.25
2019-02-06T02:36:23.623Z,3.26
2019-02-06T02:38:50.439Z,3.24
2019-02-06T02:41:17.242Z,3.22
2019-02-06T02:43:44.001Z,3.13
2019-02-06T02:46:10.619Z,3.13
2019-02-06T02:48:37.376Z,3.10
2019-02-06T02:51:04.101Z,3.08
2019-02-06T02:53:32.746Z,3.13
2019-02-06T02:55:59.590Z,3.01
2019-02-06T02:58:26.317Z,3.03
2019-02-06T03:01:12.837Z,2.94
2019-02-06T03:03:59.249Z,2.93
2019-02-06T03:06:28.552Z,3.01
2019-02-06T03:08:55.010Z,3.10
2019-02-06T03:11:21.838Z,3.04
2019-02-06T03:13:48.726Z,3.01
2019-02-06T03:16:15.560Z,2.94
2019-02-06T03:18:42.470Z,2.89
2019-02-06T03:21:09.379Z,2.82
2019-02-06T03:23:36.535Z,2.78
2019-02-06T03:26:03.355Z,2.75
2019-02-06T03:28:30.205Z,2.70
2019-02-06T03:30:56.936Z,2.62
2019-02-06T03:33:23.916Z,2.65
2019-02-06T03:35:50.856Z,2.57
2019-02-06T03:38:17.990Z,2.50
2019-02-06T03:40:44.810Z,2.56
2019-02-06T03:43:11.594Z,2.50
2019-02-06T03:45:38.419Z,2.54
2019-02-06T03:48:05.576Z,2.53
2019-02-06T03:50:32.512Z,2.52
2019-02-06T03:52:59.656Z,2.45
2019-02-06T03:55:26.430Z,2.37
2019-02-06T03:57:53.608Z,2.41
2019-02-06T04:00:20.759Z,2.30
2019-02-06T04:02:47.696Z,2.23
2019-02-06T04:05:14.610Z,2.25
2019-02-06T04:07:41.478Z,2.24
2019-02-06T04:10:09.714Z,2.28
2019-02-06T04:12:36.667Z,2.34
2019-02-06T04:15:44.543Z,2.33
2019-02-06T04:18:11.598Z,2.30
2019-02-06T04:20:38.322Z,2.26
2019-02-06T04:23:05.051Z,2.23
2019-02-06T04:25:32.540Z,2.14
2019-02-06T04:27:59.367Z,2.12
2019-02-06T04:30:26.099Z,2.00
2019-02-06T04:32:52.852Z,1.95
2019-02-06T04:35:19.563Z,1.77
2019-02-06T04:37:46.381Z,1.71
2019-02-06T04:40:15.752Z,1.64
2019-02-06T04:42:42.471Z,1.58
2019-02-06T04:45:09.563Z,1.50
2019-02-06T04:47:36.770Z,1.40
2019-02-06T04:50:04.946Z,1.34
2019-02-06T04:52:31.677Z,1.27
2019-02-06T04:54:58.453Z,1.18
2019-02-06T04:57:25.167Z,1.11
2019-02-06T04:59:52.019Z,1.05
2019-02-06T05:02:19.175Z,0.98
2019-02-06T05:04:45.888Z,0.99
2019-02-06T05:07:19.332Z,0.91
2019-02-06T05:09:41.677Z,0.85
2019-02-06T05:12:09.660Z,0.87
2019-02-06T05:14:37.093Z,0.97
2019-02-06T05:17:03.998Z,0.92
2019-02-06T05:19:30.825Z,0.91
2019-02-06T05:21:59.445Z,0.87
2019-02-06T05:24:26.323Z,0.80
2019-02-06T05:26:53.107Z,0.74
2019-02-06T05:29:20.108Z,0.70
2019-02-06T05:31:46.955Z,0.70
2019-02-06T05:34:14.500Z,0.74
2019-02-06T05:36:41.132Z,0.83
2019-02-06T05:39:08.045Z,0.94
2019-02-06T05:41:35.375Z,0.92
2019-02-06T05:44:02.096Z,0.94
2019-02-06T05:46:28.942Z,0.89
2019-02-06T05:48:55.568Z,0.88
2019-02-06T05:51:22.679Z,0.96
2019-02-06T05:53:49.431Z,0.91
2019-02-06T05:56:16.754Z,0.95
2019-02-06T05:58:43.747Z,1.00
2019-02-06T06:01:11.244Z,1.05
2019-02-06T06:03:37.972Z,1.12
2019-02-06T06:06:04.788Z,1.17
2019-02-06T06:08:31.787Z,1.15
2019-02-06T06:10:58.521Z,1.12
2019-02-06T06:13:25.352Z,1.02
2019-02-06T06:15:52.122Z,0.99
2019-02-06T06:18:21.931Z,0.86
2019-02-06T06:20:48.126Z,0.79
2019-02-06T06:23:15.091Z,0.77
2019-02-06T06:25:41.977Z,0.73
2019-02-06T06:28:08.766Z,0.71
2019-02-06T06:30:35.822Z,0.62
2019-02-06T06:33:02.940Z,0.57
2019-02-06T06:35:29.766Z,0.53
2019-02-06T06:38:02.425Z,0.48
2019-02-06T06:40:25.584Z,0.45
2019-02-06T06:42:52.413Z,0.45
2019-02-06T06:45:20.880Z,0.55
2019-02-06T06:47:47.739Z,0.43
2019-02-06T06:50:16.797Z,0.42
2019-02-06T06:52:43.880Z,0.42
2019-02-06T06:55:11.296Z,0.46
2019-02-06T06:57:38.718Z,0.41
2019-02-06T07:00:08.726Z,0.43
2019-02-06T07:02:36.015Z,0.46
2019-02-06T07:05:05.557Z,0.48
2019-02-06T07:07:32.234Z,0.48
2019-02-06T07:09:58.949Z,0.49
2019-02-06T07:12:25.709Z,0.61
2019-02-06T07:14:53.360Z,0.60
2019-02-06T07:17:20.419Z,0.63
2019-02-06T07:19:47.053Z,0.73
2019-02-06T07:22:14.232Z,0.84
2019-02-06T07:24:41.624Z,0.90
2019-02-06T07:27:08.509Z,0.97
2019-02-06T07:29:47.915Z,1.04
2019-02-06T07:32:14.888Z,1.23
2019-02-06T07:34:41.750Z,1.36
2019-02-06T07:37:08.710Z,1.46
2019-02-06T07:39:35.433Z,1.60
2019-02-06T07:42:02.203Z,1.69
2019-02-06T07:44:29.328Z,1.78
2019-02-06T07:46:56.213Z,1.67
2019-02-06T07:49:22.941Z,1.82
2019-02-06T07:51:50.928Z,1.79
2019-02-06T07:54:18.352Z,1.84
2019-02-06T07:56:45.306Z,2.00
2019-02-06T07:59:12.188Z,1.88
2019-02-06T08:01:39.347Z,1.97
2019-02-06T08:04:06.216Z,1.75
2019-02-06T08:06:33.007Z,1.81
2019-02-06T08:09:00.157Z,1.82
2019-02-06T08:11:27.153Z,2.00
2019-02-06T08:13:54.091Z,2.18
2019-02-06T08:16:20.813Z,2.36
2019-02-06T08:18:48.025Z,2.58
2019-02-06T08:21:14.922Z,2.83
2019-02-06T08:23:41.828Z,2.93
2019-02-06T08:26:08.653Z,3.02
2019-02-06T08:28:38.385Z,3.14
2019-02-06T08:31:05.630Z,3.04
2019-02-06T08:33:32.523Z,3.04
2019-02-06T08:35:59.545Z,2.99
2019-02-06T08:38:26.433Z,3.13
2019-02-06T08:40:53.876Z,2.98
2019-02-06T08:43:20.878Z,3.11
2019-02-06T08:45:47.852Z,3.02
2019-02-06T08:48:14.738Z,3.04
2019-02-06T08:50:41.674Z,3.20
2019-02-06T08:53:08.563Z,3.37
2019-02-06T08:55:35.336Z,3.36
2019-02-06T08:58:02.354Z,3.44
2019-02-06T09:00:31.291Z,3.67
2019-02-06T09:02:58.270Z,3.51
2019-02-06T09:05:27.162Z,3.75
2019-02-06T09:07:54.019Z,3.69
2019-02-06T09:10:21.892Z,3.69
2019-02-06T09:13:29.780Z,3.82
2019-02-06T09:15:56.817Z,3.72
2019-02-06T09:18:24.024Z,3.84
2019-02-06T09:20:52.820Z,4.04
2019-02-06T09:23:20.215Z,4.17
2019-02-06T09:25:47.503Z,4.26
2019-02-06T09:28:14.450Z,4.30
2019-02-06T09:30:41.190Z,4.25
2019-02-06T09:33:07.977Z,4.38
2019-02-06T09:35:34.991Z,4.63
2019-02-06T09:38:01.836Z,4.59
2019-02-06T09:40:29.481Z,4.56
2019-02-06T09:42:56.431Z,4.78
2019-02-06T09:46:04.484Z,4.74
2019-02-06T09:48:31.424Z,4.85
2019-02-06T09:50:58.531Z,5.17
2019-02-06T09:53:25.314Z,5.32
2019-02-06T09:55:53.361Z,5.47
2019-02-06T09:58:20.804Z,5.56
2019-02-06T10:00:47.625Z,5.85
2019-02-06T10:03:14.513Z,6.09
2019-02-06T10:05:41.521Z,6.19
2019-02-06T10:08:08.252Z,6.68
2019-02-06T10:10:35.067Z,6.96
2019-02-06T10:13:01.808Z,7.01
2019-02-06T10:15:33.481Z,7.15
2019-02-06T10:18:02.369Z,6.92
2019-02-06T10:20:34.562Z,6.72
2019-02-06T10:23:01.400Z,6.67
2019-02-06T10:25:28.478Z,6.66
2019-02-06T10:27:55.603Z,6.52
2019-02-06T10:30:27.863Z,6.36
2019-02-06T10:32:55.146Z,6.70
2019-02-06T10:35:22.052Z,6.88
2019-02-06T10:40:43.965Z,7.13
2019-02-06T10:43:10.703Z,7.10
2019-02-06T10:45:38.279Z,7.02
2019-02-06T10:48:05.243Z,7.20
2019-02-06T10:50:34.538Z,7.21
2019-02-06T10:53:01.564Z,7.35
2019-02-06T10:55:28.798Z,7.16
2019-02-06T10:57:55.655Z,7.41
2019-02-06T11:01:05.162Z,7.36
2019-02-06T11:03:31.985Z,7.19
2019-02-06T11:05:58.823Z,7.34
2019-02-06T11:08:25.617Z,7.46
2019-02-06T11:10:52.966Z,7.64
2019-02-06T11:13:19.708Z,7.67
2019-02-06T11:15:46.951Z,7.77
2019-02-06T11:18:13.771Z,7.67
2019-02-06T11:21:22.177Z,7.57
2019-02-06T11:23:48.891Z,7.80
2019-02-06T11:26:15.641Z,8.20
2019-02-06T11:28:42.435Z,8.23
2019-02-06T11:31:09.586Z,8.41
2019-02-06T11:33:36.336Z,8.25
2019-02-06T11:36:03.391Z,8.03
2019-02-06T11:38:32.033Z,7.98
2019-02-06T11:40:58.772Z,7.63
2019-02-06T11:43:25.906Z,7.50
2019-02-06T11:45:52.761Z,7.54
2019-02-06T11:48:19.503Z,7.65
2019-02-06T11:50:46.410Z,7.36
2019-02-06T11:53:32.760Z,7.49
2019-02-06T11:55:59.652Z,7.70
2019-02-06T11:58:26.500Z,7.96
2019-02-06T12:01:13.053Z,8.21
2019-02-06T12:03:39.963Z,8.39
2019-02-06T12:06:08.715Z,8.35
2019-02-06T12:08:35.583Z,8.76
2019-02-06T12:11:23.879Z,8.60
2019-02-06T12:13:53.523Z,8.56
2019-02-06T12:16:20.293Z,8.18
2019-02-06T12:18:48.993Z,7.90
2019-02-06T12:21:17.884Z,8.12
2019-02-06T12:23:44.498Z,7.76
2019-02-06T12:26:11.357Z,7.46
2019-02-06T12:28:38.339Z,7.66
2019-02-06T12:31:05.267Z,7.76
2019-02-06T12:33:32.054Z,7.77
2019-02-06T12:35:58.976Z,7.88
2019-02-06T12:38:28.051Z,7.95
2019-02-06T12:40:54.988Z,7.64
2019-02-06T12:43:21.803Z,7.98
2019-02-06T12:45:48.670Z,7.60
2019-02-06T12:48:15.413Z,8.04
2019-02-06T12:50:42.384Z,7.89
2019-02-06T12:53:09.236Z,7.56
2019-02-06T12:55:36.900Z,7.60
2019-02-06T12:58:45.113Z,7.81
2019-02-06T13:01:11.840Z,7.56
2019-02-06T13:03:38.715Z,7.60
2019-02-06T13:06:05.794Z,7.34
2019-02-06T13:08:32.827Z,7.42
2019-02-06T13:10:59.765Z,7.58
2019-02-06T13:13:26.845Z,7.63
2019-02-06T13:15:53.684Z,7.62
2019-02-06T13:18:20.551Z,7.46
2019-02-06T13:20:47.550Z,7.35
2019-02-06T13:23:14.490Z,7.39
2019-02-06T13:25:41.362Z,7.31
2019-02-06T13:28:08.436Z,7.26
2019-02-06T13:30:35.523Z,7.06
2019-02-06T13:33:02.354Z,6.82
2019-02-06T13:35:29.593Z,6.58
2019-02-06T13:37:56.732Z,6.63
2019-02-06T13:40:24.938Z,6.46
2019-02-06T13:42:51.795Z,6.39
2019-02-06T13:45:21.036Z,6.42
2019-02-06T13:47:48.067Z,6.41
2019-02-06T13:50:22.182Z,6.31
2019-02-06T13:52:43.886Z,6.35
2019-02-06T13:55:11.005Z,6.19
2019-02-06T13:57:38.031Z,6.24
2019-02-06T14:00:29.583Z,6.18
2019-02-06T14:02:57.122Z,6.03
2019-02-06T14:05:25.763Z,6.12
2019-02-06T14:07:55.246Z,6.04
2019-02-06T14:12:57.366Z,6.06
2019-02-06T14:16:05.772Z,5.75
2019-02-06T14:18:45.368Z,5.65
2019-02-06T14:21:12.152Z,5.73
2019-02-06T14:24:18.160Z,5.85
2019-02-06T14:27:09.521Z,5.69
2019-02-06T14:30:06.643Z,5.57
2019-02-06T14:32:56.705Z,5.37
2019-02-06T14:35:29.520Z,5.35
2019-02-06T14:38:24.656Z,5.29
2019-02-06T14:41:30.666Z,5.28
2019-02-06T14:44:36.952Z,5.24
2019-02-06T14:47:43.247Z,5.14
2019-02-06T14:50:49.595Z,4.98
2019-02-06T14:53:55.678Z,5.04
2019-02-06T14:56:31.087Z,4.89
2019-02-06T14:59:26.105Z,4.94
2019-02-06T15:02:31.994Z,5.00
2019-02-06T15:05:23.299Z,4.75
2019-02-06T15:08:29.356Z,4.68
2019-02-06T15:11:22.344Z,4.64
2019-02-06T15:14:27.841Z,4.57
2019-02-06T15:17:21.737Z,4.62
2019-02-06T15:20:27.678Z,4.55
2019-02-06T15:23:17.494Z,4.53
2019-02-06T15:26:23.370Z,4.39
2019-02-06T15:29:29.364Z,4.39
2019-02-06T15:32:35.221Z,4.29
2019-02-06T15:35:41.210Z,4.25
2019-02-06T15:38:19.921Z,4.27
2019-02-06T15:41:31.093Z,4.15
2019-02-06T15:44:34.447Z,4.03
2019-02-06T15:47:42.335Z,4.06
2019-02-06T15:50:41.887Z,4.01
2019-02-06T15:53:48.461Z,4.00
2019-02-06T15:56:55.729Z,4.00
2019-02-06T16:00:01.749Z,4.01
2019-02-06T16:02:51.907Z,3.92
2019-02-06T16:06:18.036Z,3.82
2019-02-06T16:09:24.634Z,3.76
2019-02-06T16:12:30.652Z,3.77
2019-02-06T16:15:21.077Z,3.71
2019-02-06T16:18:12.672Z,3.70
2019-02-06T16:20:52.409Z,3.67
2019-02-06T16:23:51.236Z,3.71
2019-02-06T16:26:37.688Z,3.72
2019-02-06T16:29:43.725Z,3.71
2019-02-06T16:32:33.559Z,3.69
2019-02-06T16:35:39.887Z,3.68
2019-02-06T16:38:45.764Z,3.71
2019-02-06T16:41:38.691Z,3.69
2019-02-06T16:44:44.565Z,3.72
2019-02-06T16:47:45.037Z,3.65
2019-02-06T16:50:45.813Z,3.67
2019-02-06T16:53:36.056Z,3.58
2019-02-06T16:56:41.937Z,3.58
2019-02-06T16:59:36.366Z,3.60
2019-02-06T17:02:42.381Z,3.60
2019-02-06T17:05:48.653Z,3.63
2019-02-06T17:08:43.382Z,3.63
2019-02-06T17:11:49.387Z,3.61
2019-02-06T17:14:55.266Z,3.60
2019-02-06T17:17:29.519Z,3.58
2019-02-06T17:20:20.526Z,3.58
2019-02-06T17:23:26.817Z,3.57
2019-02-06T17:26:32.702Z,3.61
2019-02-06T17:29:38.674Z,3.51
2019-02-06T17:32:44.551Z,3.59
2019-02-06T17:35:38.004Z,3.60
2019-02-06T17:38:37.660Z,3.63
2019-02-06T17:41:26.761Z,3.65
2019-02-06T17:44:32.888Z,3.70
2019-02-06T17:47:24.024Z,3.70
2019-02-06T17:50:30.273Z,3.65
2019-02-06T17:53:29.194Z,3.62
2019-02-06T17:55:56.549Z,3.74
2019-02-06T17:58:24.081Z,3.72
2019-02-06T18:01:30.518Z,3.70
2019-02-06T18:04:19.061Z,3.74
2019-02-06T18:07:27.108Z,3.67
2019-02-06T18:09:53.990Z,3.74
2019-02-06T18:12:26.260Z,3.76
2019-02-06T18:14:49.626Z,3.74
2019-02-06T18:17:16.917Z,3.72
2019-02-06T18:19:43.671Z,3.81
2019-02-06T18:22:10.593Z,3.80
2019-02-06T18:24:37.520Z,3.82
2019-02-06T18:27:04.872Z,3.74
2019-02-06T18:29:31.787Z,3.93
2019-02-06T18:32:00.241Z,3.85
2019-02-06T18:34:27.090Z,3.87
2019-02-06T18:36:56.314Z,3.85
2019-02-06T18:39:23.439Z,3.88
2019-02-06T18:41:50.509Z,3.94
2019-02-06T18:44:17.686Z,3.98
2019-02-06T18:46:46.444Z,4.05
2019-02-06T18:49:13.186Z,3.98
2019-02-06T18:51:41.151Z,3.98
2019-02-06T18:54:29.717Z,3.99
2019-02-06T18:56:56.541Z,3.98
2019-02-06T18:59:23.330Z,3.89
2019-02-06T19:01:50.103Z,3.89
2019-02-06T19:04:19.126Z,3.90
2019-02-06T19:06:46.782Z,3.77
2019-02-06T19:09:14.837Z,3.72
2019-02-06T19:11:41.750Z,3.68
2019-02-06T19:14:08.659Z,3.68
2019-02-06T19:16:37.343Z,3.75
2019-02-06T19:19:04.771Z,3.68
2019-02-06T19:21:31.531Z,3.74
2019-02-06T19:23:58.891Z,3.76
2019-02-06T19:26:26.262Z,3.76
2019-02-06T19:28:53.600Z,3.64
2019-02-06T19:31:20.477Z,3.71
2019-02-06T19:33:47.636Z,3.75
2019-02-06T19:36:14.844Z,3.73
2019-02-06T19:38:41.894Z,3.64
2019-02-06T19:41:09.108Z,3.65
2019-02-06T19:43:37.077Z,3.72
2019-02-06T19:46:03.984Z,3.67
2019-02-06T19:48:55.888Z,3.68
2019-02-06T19:51:23.046Z,3.69
2019-02-06T19:53:50.170Z,3.60
2019-02-06T19:56:17.244Z,3.66
2019-02-06T19:58:44.058Z,3.67
2019-02-06T20:01:10.902Z,3.60
2019-02-06T20:03:37.897Z,3.56
2019-02-06T20:06:05.740Z,3.47
2019-02-06T20:08:33.894Z,3.38
2019-02-06T20:11:00.881Z,3.31
2019-02-06T20:13:28.468Z,3.21
2019-02-06T20:15:55.766Z,3.18
2019-02-06T20:18:22.707Z,3.10
2019-02-06T20:20:49.453Z,3.04
2019-02-06T20:23:16.551Z,2.99
2019-02-06T20:25:43.700Z,2.93
2019-02-06T20:28:10.592Z,2.90
2019-02-06T20:30:59.122Z,2.86
2019-02-06T20:33:25.940Z,2.86
2019-02-06T20:35:52.672Z,2.80
2019-02-06T20:38:19.623Z,2.79
2019-02-06T20:40:46.511Z,2.75
2019-02-06T20:43:21.775Z,2.63
2019-02-06T20:45:42.112Z,2.70
2019-02-06T20:51:00.381Z,2.68
2019-02-06T20:53:27.420Z,2.63
2019-02-06T20:55:54.178Z,2.64
2019-02-06T20:58:21.147Z,2.63
2019-02-06T21:00:48.553Z,2.60
2019-02-06T21:03:15.400Z,2.57
2019-02-06T21:05:44.531Z,2.54
2019-02-06T21:08:12.184Z,2.47
2019-02-06T21:10:39.396Z,2.40
2019-02-06T21:13:06.228Z,2.38
2019-02-06T21:15:33.165Z,2.37
2019-02-06T21:18:00.048Z,2.30
2019-02-06T21:20:27.328Z,2.37
2019-02-06T21:22:54.253Z,2.33
2019-02-06T21:25:21.172Z,2.33
2019-02-06T21:27:49.196Z,2.34
2019-02-06T21:30:35.765Z,2.31
2019-02-06T21:33:02.742Z,2.23
2019-02-06T21:35:30.041Z,2.18
2019-02-06T21:37:57.212Z,2.11
2019-02-06T21:40:25.982Z,2.12
2019-02-06T21:42:52.972Z,1.99
2019-02-06T21:45:19.827Z,1.98
2019-02-06T21:47:47.136Z,1.94
2019-02-06T21:50:21.546Z,1.97
2019-02-06T21:52:48.407Z,2.02
2019-02-06T21:55:16.081Z,2.12
2019-02-06T22:00:37.150Z,2.14
2019-02-06T22:03:25.547Z,2.20
2019-02-06T22:05:52.428Z,2.28
2019-02-06T22:08:19.656Z,2.37
2019-02-06T22:10:47.691Z,2.34
2019-02-06T22:13:14.610Z,2.37
2019-02-06T22:15:41.555Z,2.37
2019-02-06T22:18:08.948Z,2.38
2019-02-06T22:20:35.808Z,2.40
2019-02-06T22:23:03.036Z,2.35
2019-02-06T22:25:30.684Z,2.26
2019-02-06T22:27:57.496Z,2.28
2019-02-06T22:30:25.950Z,2.23
2019-02-06T22:32:52.806Z,2.20
2019-02-06T22:35:21.896Z,2.17
2019-02-06T22:37:48.739Z,2.14
2019-02-06T22:40:17.263Z,2.07
2019-02-06T22:42:44.184Z,2.06
2019-02-06T22:45:14.084Z,2.06
2019-02-06T22:47:40.939Z,2.01
2019-02-06T22:50:09.629Z,2.07
2019-02-06T22:52:39.024Z,2.09
2019-02-06T22:55:06.973Z,2.07
2019-02-06T22:57:33.845Z,2.18
2019-02-06T23:00:00.895Z,2.28
2019-02-06T23:02:27.761Z,2.35
2019-02-06T23:04:54.638Z,2.38
2019-02-06T23:07:21.649Z,2.27
2019-02-06T23:09:50.297Z,2.30
2019-02-06T23:12:17.292Z,2.33
2019-02-06T23:14:44.228Z,2.36
2019-02-06T23:17:11.097Z,2.36
2019-02-06T23:19:38.330Z,2.28
2019-02-06T23:22:05.073Z,2.30
2019-02-06T23:24:31.810Z,2.23
2019-02-06T23:26:58.984Z,2.18
2019-02-06T23:29:25.901Z,2.14
2019-02-06T23:31:52.987Z,2.11
2019-02-06T23:34:19.797Z,2.11
2019-02-06T23:36:46.591Z,2.05
2019-02-06T23:39:33.082Z,2.04
2019-02-06T23:41:59.945Z,1.97
2019-02-06T23:44:28.881Z,1.92
2019-02-06T23:46:56.259Z,1.87
2019-02-06T23:49:24.368Z,1.82
2019-02-06T23:51:51.237Z,1.76
2019-02-06T23:54:18.210Z,1.76
2019-02-06T23:56:45.415Z,1.69
2019-02-06T23:59:13.058Z,1.79
